createdAt,value
2019-06-26T00:00:43.069Z,54.83
2019-06-26T00:03:11.667Z,56.20
2019-06-26T00:05:40.417Z,64.20
2019-06-26T00:08:08.983Z,63.23
2019-06-26T00:10:37.578Z,64.70
2019-06-26T00:13:06.127Z,74.20
2019-06-26T00:15:34.699Z,77.83
2019-06-26T00:18:03.261Z,77.90
2019-06-26T00:20:31.831Z,78.20
2019-06-26T00:23:00.339Z,79.53
2019-06-26T00:25:28.812Z,81.43
2019-06-26T00:27:57.312Z,79.13
2019-06-26T00:30:25.906Z,77.17
2019-06-26T00:32:54.383Z,75.83
2019-06-26T00:35:22.889Z,81.03
2019-06-26T00:37:51.464Z,77.17
2019-06-26T00:40:19.957Z,78.43
2019-06-26T00:42:48.454Z,78.43
2019-06-26T00:45:17.031Z,79.60
2019-06-26T00:47:45.610Z,80.13
2019-06-26T00:50:14.523Z,78.30
2019-06-26T00:52:43.074Z,76.27
2019-06-26T00:55:11.701Z,77.40
2019-06-26T00:57:40.295Z,73.87
2019-06-26T01:00:09.776Z,74.63
2019-06-26T01:02:38.409Z,72.90
2019-06-26T01:05:12.042Z,69.53
2019-06-26T01:07:41.504Z,70.67
2019-06-26T01:10:11.889Z,70.73
2019-06-26T01:12:40.483Z,74.37
2019-06-26T01:15:09.315Z,73.77
2019-06-26T01:17:37.911Z,73.03
2019-06-26T01:20:07.941Z,70.57
2019-06-26T01:22:36.472Z,73.33
2019-06-26T01:25:05.977Z,70.30
2019-06-26T01:27:34.490Z,65.43
2019-06-26T01:30:04.420Z,65.33
2019-06-26T01:32:33.005Z,63.37
2019-06-26T01:35:01.529Z,66.43
2019-06-26T01:37:30.182Z,58.93
2019-06-26T01:39:58.771Z,62.83
2019-06-26T01:42:27.259Z,60.37
2019-06-26T01:44:55.862Z,66.57
2019-06-26T01:47:24.500Z,64.53
2019-06-26T01:49:55.791Z,65.97
2019-06-26T01:52:24.366Z,64.20
2019-06-26T01:54:52.926Z,59.30
2019-06-26T01:57:21.539Z,63.10
2019-06-26T01:59:50.083Z,60.30
2019-06-26T02:02:18.668Z,66.80
2019-06-26T02:04:47.227Z,59.43
2019-06-26T02:07:15.757Z,64.87
2019-06-26T02:09:44.450Z,63.70
2019-06-26T02:12:12.997Z,55.97
2019-06-26T02:14:41.563Z,65.73
2019-06-26T02:17:10.119Z,62.20
2019-06-26T02:19:38.774Z,55.27
2019-06-26T02:22:07.404Z,55.30
2019-06-26T02:24:36.054Z,57.10
2019-06-26T02:27:04.569Z,52.23
2019-06-26T02:29:33.172Z,55.33
2019-06-26T02:32:01.757Z,52.50
2019-06-26T02:34:30.292Z,54.07
2019-06-26T02:36:58.883Z,50.37
2019-06-26T02:39:27.413Z,56.20
2019-06-26T02:41:55.906Z,52.67
2019-06-26T02:44:24.522Z,52.67
2019-06-26T02:46:53.101Z,50.80
2019-06-26T02:49:21.694Z,55.33
2019-06-26T02:51:50.250Z,54.33
2019-06-26T02:54:18.825Z,60.13
2019-06-26T02:56:47.400Z,54.17
2019-06-26T02:59:15.963Z,54.63
2019-06-26T03:01:44.512Z,58.40
2019-06-26T03:04:13.077Z,57.50
2019-06-26T03:06:41.606Z,58.20
2019-06-26T03:09:10.101Z,66.93
2019-06-26T03:11:40.125Z,61.17
2019-06-26T03:14:08.624Z,57.47
2019-06-26T03:16:37.140Z,67.53
2019-06-26T03:19:05.766Z,67.57
2019-06-26T03:21:34.253Z,62.23
2019-06-26T03:24:02.752Z,66.40
2019-06-26T03:26:31.409Z,74.37
2019-06-26T03:28:59.965Z,73.67
2019-06-26T03:31:28.466Z,74.97
2019-06-26T03:33:57.090Z,75.70
2019-06-26T03:36:25.614Z,79.43
2019-06-26T03:38:54.198Z,78.17
2019-06-26T03:41:22.685Z,82.97
2019-06-26T03:43:51.264Z,84.47
2019-06-26T03:46:19.841Z,84.63
2019-06-26T03:48:48.356Z,79.60
2019-06-26T03:51:16.985Z,82.73
2019-06-26T03:53:45.561Z,82.80
2019-06-26T03:56:14.055Z,81.27
2019-06-26T03:58:42.600Z,77.63
2019-06-26T04:01:11.108Z,75.27
2019-06-26T04:03:39.619Z,81.50
2019-06-26T04:06:08.235Z,71.07
2019-06-26T04:08:38.407Z,79.10
2019-06-26T04:11:06.969Z,71.37
2019-06-26T04:13:35.533Z,69.17
2019-06-26T04:16:04.121Z,69.10
2019-06-26T04:18:32.670Z,70.70
2019-06-26T04:21:01.249Z,65.73
2019-06-26T04:23:29.808Z,60.53
2019-06-26T04:25:58.324Z,59.90
2019-06-26T04:28:26.850Z,56.17
2019-06-26T04:30:55.337Z,54.27
2019-06-26T04:33:23.858Z,51.53
2019-06-26T04:35:52.439Z,52.50
2019-06-26T04:38:21.027Z,57.20
2019-06-26T04:40:50.753Z,56.27
2019-06-26T04:43:19.258Z,51.93
2019-06-26T04:45:57.579Z,55.93
2019-06-26T04:48:18.031Z,55.10
2019-06-26T04:50:46.548Z,55.23
2019-06-26T04:53:15.593Z,53.53
2019-06-26T04:55:44.331Z,50.47
2019-06-26T04:58:12.889Z,52.93
2019-06-26T05:00:41.448Z,54.57
2019-06-26T05:03:09.958Z,55.00
2019-06-26T05:05:40.126Z,50.67
2019-06-26T05:08:08.871Z,53.40
2019-06-26T05:10:37.461Z,52.50
2019-06-26T05:13:06.049Z,49.90
2019-06-26T05:15:34.616Z,55.63
2019-06-26T05:18:03.195Z,48.30
2019-06-26T05:20:31.780Z,51.93
2019-06-26T05:23:00.298Z,49.77
2019-06-26T05:25:28.859Z,49.10
2019-06-26T05:27:57.514Z,52.30
2019-06-26T05:30:26.154Z,48.03
2019-06-26T05:32:54.704Z,51.50
2019-06-26T05:35:23.219Z,49.43
2019-06-26T05:37:51.881Z,47.00
2019-06-26T05:40:20.691Z,50.70
2019-06-26T05:42:49.168Z,46.00
2019-06-26T05:45:18.780Z,40.37
2019-06-26T05:47:47.421Z,44.93
2019-06-26T05:50:17.681Z,45.93
2019-06-26T05:52:46.174Z,45.23
2019-06-26T05:55:14.788Z,43.40
2019-06-26T05:57:43.927Z,42.27
2019-06-26T06:00:12.864Z,40.37
2019-06-26T06:02:41.456Z,43.60
2019-06-26T06:05:11.042Z,41.20
2019-06-26T06:07:40.740Z,41.67
2019-06-26T06:10:10.229Z,39.93
2019-06-26T06:12:38.866Z,41.30
2019-06-26T06:15:08.255Z,42.07
2019-06-26T06:17:37.107Z,39.17
2019-06-26T06:20:06.892Z,44.87
2019-06-26T06:22:35.541Z,34.30
2019-06-26T06:25:05.507Z,40.63
2019-06-26T06:27:34.207Z,36.20
2019-06-26T06:30:03.009Z,39.17
2019-06-26T06:32:31.570Z,32.67
2019-06-26T06:35:00.131Z,29.63
2019-06-26T06:37:30.279Z,36.63
2019-06-26T06:39:58.874Z,14.23
2019-06-26T06:42:27.354Z,34.43
2019-06-26T06:44:55.859Z,31.33
2019-06-26T06:47:24.354Z,20.07
2019-06-26T06:49:54.580Z,32.03
2019-06-26T06:52:23.149Z,32.50
2019-06-26T06:54:51.716Z,33.77
2019-06-26T06:57:20.268Z,25.17
2019-06-26T06:59:48.763Z,23.60
2019-06-26T07:02:17.273Z,31.57
2019-06-26T07:04:45.792Z,25.30
2019-06-26T07:07:14.297Z,24.20
2019-06-26T07:09:42.878Z,29.53
2019-06-26T07:12:11.382Z,31.87
2019-06-26T07:14:39.967Z,23.03
2019-06-26T07:17:19.811Z,26.87
2019-06-26T07:19:39.323Z,31.00
2019-06-26T07:22:07.883Z,34.37
2019-06-26T07:24:36.385Z,23.67
2019-06-26T07:27:05.043Z,23.53
2019-06-26T07:29:33.527Z,23.53
2019-06-26T07:32:02.153Z,30.43
2019-06-26T07:34:30.776Z,28.30
2019-06-26T07:36:59.277Z,34.53
2019-06-26T07:39:27.834Z,29.47
2019-06-26T07:41:56.363Z,24.50
2019-06-26T07:44:24.962Z,23.73
2019-06-26T07:46:53.523Z,25.23
2019-06-26T07:49:22.077Z,21.93
2019-06-26T07:51:50.570Z,33.40
2019-06-26T07:54:19.265Z,29.43
2019-06-26T07:56:48.477Z,26.33
2019-06-26T07:59:17.125Z,23.47
2019-06-26T08:01:45.692Z,20.70
2019-06-26T08:04:14.306Z,28.17
2019-06-26T08:06:42.837Z,29.70
2019-06-26T08:09:11.416Z,34.00
2019-06-26T08:11:39.898Z,36.03
2019-06-26T08:14:08.602Z,35.67
2019-06-26T08:16:37.247Z,32.10
2019-06-26T08:19:05.802Z,33.50
2019-06-26T08:21:34.457Z,40.20
2019-06-26T08:24:03.175Z,33.87
2019-06-26T08:26:31.949Z,44.20
2019-06-26T08:29:00.509Z,40.80
2019-06-26T08:31:29.290Z,37.30
2019-06-26T08:33:57.958Z,35.30
2019-06-26T08:36:26.478Z,38.10
2019-06-26T08:38:55.153Z,32.50
2019-06-26T08:41:23.749Z,29.10
2019-06-26T08:43:52.351Z,26.13
2019-06-26T08:46:20.930Z,29.17
2019-06-26T08:48:51.920Z,26.77
2019-06-26T08:51:20.128Z,27.47
2019-06-26T08:53:48.694Z,31.70
2019-06-26T08:56:17.227Z,27.97
2019-06-26T08:58:45.787Z,31.83
2019-06-26T09:01:14.305Z,28.57
2019-06-26T09:03:42.796Z,28.03
2019-06-26T09:06:11.363Z,28.20
2019-06-26T09:08:39.926Z,31.23
2019-06-26T09:11:08.450Z,27.20
2019-06-26T09:13:36.962Z,32.70
2019-06-26T09:16:05.534Z,35.13
2019-06-26T09:18:35.957Z,32.83
2019-06-26T09:21:05.792Z,36.40
2019-06-26T09:23:34.273Z,40.00
2019-06-26T09:26:02.889Z,37.33
2019-06-26T09:28:31.471Z,38.97
2019-06-26T09:30:59.982Z,39.13
2019-06-26T09:33:32.124Z,35.43
2019-06-26T09:35:58.796Z,35.57
2019-06-26T09:38:27.447Z,43.73
2019-06-26T09:40:56.011Z,38.37
2019-06-26T09:43:24.543Z,41.97
2019-06-26T09:45:53.582Z,35.77
2019-06-26T09:48:22.238Z,32.07
2019-06-26T09:50:50.850Z,31.70
2019-06-26T09:53:19.409Z,36.13
2019-06-26T09:55:48.036Z,39.90
2019-06-26T09:58:16.511Z,36.67
2019-06-26T10:00:45.084Z,29.73
2019-06-26T10:03:13.685Z,33.90
2019-06-26T10:05:42.523Z,32.03
2019-06-26T10:08:11.033Z,32.67
2019-06-26T10:10:39.618Z,29.70
2019-06-26T10:13:08.159Z,30.90
2019-06-26T10:15:36.659Z,27.60
2019-06-26T10:18:05.350Z,32.17
2019-06-26T10:20:34.410Z,28.87
2019-06-26T10:23:02.929Z,34.47
2019-06-26T10:25:31.488Z,30.63
2019-06-26T10:28:00.085Z,27.80
2019-06-26T10:30:28.692Z,33.07
2019-06-26T10:32:57.201Z,30.53
2019-06-26T10:35:25.701Z,33.07
2019-06-26T10:37:54.252Z,25.43
2019-06-26T10:40:25.102Z,24.17
2019-06-26T10:42:53.302Z,23.10
2019-06-26T10:45:21.882Z,24.00
2019-06-26T10:47:50.452Z,23.13
2019-06-26T10:50:19.002Z,21.37
2019-06-26T10:52:47.576Z,25.07
2019-06-26T10:55:16.462Z,21.77
2019-06-26T10:57:45.035Z,20.53
2019-06-26T11:00:15.251Z,21.60
2019-06-26T11:02:43.866Z,25.10
2019-06-26T11:05:12.711Z,20.90
2019-06-26T11:07:41.292Z,19.07
2019-06-26T11:10:10.523Z,25.93
2019-06-26T11:12:39.140Z,20.07
2019-06-26T11:15:08.539Z,19.57
2019-06-26T11:17:37.204Z,21.37
2019-06-26T11:20:07.835Z,20.37
2019-06-26T11:22:36.717Z,22.07
2019-06-26T11:25:07.082Z,21.97
2019-06-26T11:27:35.697Z,19.37
2019-06-26T11:30:09.560Z,18.00
2019-06-26T11:32:38.213Z,18.93
2019-06-26T11:35:07.863Z,19.93
2019-06-26T11:37:36.973Z,18.53
2019-06-26T11:40:08.833Z,16.90
2019-06-26T11:42:37.455Z,16.63
2019-06-26T11:45:07.714Z,16.60
2019-06-26T11:47:37.375Z,16.70
2019-06-26T11:50:10.458Z,17.33
2019-06-26T11:52:40.792Z,16.77
2019-06-26T11:55:10.372Z,15.97
2019-06-26T11:57:39.024Z,14.53
2019-06-26T12:00:10.495Z,15.30
2019-06-26T12:02:39.103Z,14.80
2019-06-26T12:05:08.541Z,16.37
2019-06-26T12:07:37.171Z,14.03
2019-06-26T12:10:07.826Z,14.50
2019-06-26T12:12:36.500Z,13.63
2019-06-26T12:15:07.516Z,13.37
2019-06-26T12:17:36.156Z,13.03
2019-06-26T12:20:18.018Z,12.77
2019-06-26T12:22:36.890Z,13.23
2019-06-26T12:25:06.526Z,12.00
2019-06-26T12:27:35.129Z,12.17
2019-06-26T12:30:07.542Z,13.97
2019-06-26T12:33:02.207Z,11.27
2019-06-26T12:35:21.830Z,13.00
2019-06-26T12:37:50.401Z,11.40
2019-06-26T12:40:19.508Z,11.60
2019-06-26T12:42:48.004Z,11.80
2019-06-26T12:45:17.178Z,14.53
2019-06-26T12:47:45.789Z,12.13
2019-06-26T12:50:15.531Z,10.33
2019-06-26T12:52:44.597Z,9.87
2019-06-26T12:55:13.525Z,9.60
2019-06-26T12:57:42.137Z,10.00
2019-06-26T13:00:13.067Z,11.87
2019-06-26T13:02:41.712Z,10.77
2019-06-26T13:05:10.950Z,12.43
2019-06-26T13:07:39.450Z,9.23
2019-06-26T13:10:09.150Z,11.03
2019-06-26T13:12:37.802Z,10.37
2019-06-26T13:15:08.376Z,10.07
2019-06-26T13:17:37.011Z,10.67
2019-06-26T13:20:10.064Z,10.90
2019-06-26T13:22:38.482Z,11.43
2019-06-26T13:25:07.562Z,13.53
2019-06-26T13:27:36.149Z,11.17
2019-06-26T13:30:08.224Z,11.80
2019-06-26T13:32:36.752Z,10.87
2019-06-26T13:35:08.609Z,12.37
2019-06-26T13:37:37.227Z,13.17
2019-06-26T13:40:07.204Z,9.83
2019-06-26T13:42:35.778Z,11.37
2019-06-26T13:45:08.518Z,9.73
2019-06-26T13:47:37.091Z,11.43
2019-06-26T13:50:07.231Z,10.67
2019-06-26T13:52:35.866Z,11.17
2019-06-26T13:55:05.461Z,13.93
2019-06-26T13:57:34.033Z,11.33
2019-06-26T14:00:03.154Z,13.67
2019-06-26T14:02:31.722Z,10.93
2019-06-26T14:05:00.277Z,10.03
2019-06-26T14:07:30.690Z,8.70
2019-06-26T14:09:59.316Z,7.87
2019-06-26T14:12:27.789Z,8.50
2019-06-26T14:14:57.743Z,10.23
2019-06-26T14:17:26.667Z,11.23
2019-06-26T14:19:55.312Z,8.90
2019-06-26T14:22:23.802Z,7.07
2019-06-26T14:24:54.267Z,7.80
2019-06-26T14:27:22.575Z,8.70
2019-06-26T14:29:51.082Z,9.17
2019-06-26T14:32:19.560Z,5.90
2019-06-26T14:34:48.069Z,10.43
2019-06-26T14:37:16.688Z,6.80
2019-06-26T14:39:46.883Z,7.20
2019-06-26T14:42:15.932Z,5.57
2019-06-26T14:44:44.577Z,7.73
2019-06-26T14:47:13.145Z,8.10
2019-06-26T14:49:41.629Z,8.13
2019-06-26T14:52:10.196Z,6.33
2019-06-26T14:54:38.692Z,6.90
2019-06-26T14:57:07.196Z,5.40
2019-06-26T14:59:35.769Z,4.27
2019-06-26T15:02:04.343Z,5.97
2019-06-26T15:04:32.899Z,4.83
2019-06-26T15:07:01.459Z,5.80
2019-06-26T15:09:30.847Z,6.17
2019-06-26T15:12:00.237Z,6.57
2019-06-26T15:14:28.909Z,5.33
2019-06-26T15:16:57.452Z,5.17
2019-06-26T15:19:25.952Z,4.77
2019-06-26T15:21:58.659Z,4.57
2019-06-26T15:24:25.438Z,4.00
2019-06-26T15:26:53.918Z,7.33
2019-06-26T15:29:22.492Z,4.50
2019-06-26T15:31:50.964Z,6.33
2019-06-26T15:34:19.622Z,5.07
2019-06-26T15:36:48.205Z,6.00
2019-06-26T15:39:16.668Z,6.50
2019-06-26T15:41:45.281Z,5.10
2019-06-26T15:44:13.830Z,7.83
2019-06-26T15:46:42.315Z,3.77
2019-06-26T15:49:10.926Z,6.07
2019-06-26T15:51:39.523Z,7.50
2019-06-26T15:54:08.116Z,5.13
2019-06-26T15:56:36.650Z,4.53
2019-06-26T15:59:05.127Z,5.40
2019-06-26T16:01:33.635Z,4.93
2019-06-26T16:04:02.187Z,10.73
2019-06-26T16:06:30.699Z,10.47
2019-06-26T16:08:59.307Z,12.17
2019-06-26T16:11:27.818Z,10.17
2019-06-26T16:13:56.387Z,10.27
2019-06-26T16:16:25.268Z,8.43
2019-06-26T16:18:55.446Z,9.17
2019-06-26T16:21:23.977Z,8.67
2019-06-26T16:23:52.555Z,6.97
2019-06-26T16:26:21.119Z,5.97
2019-06-26T16:28:49.683Z,6.47
2019-06-26T16:31:18.282Z,5.57
2019-06-26T16:33:46.816Z,6.47
2019-06-26T16:36:15.335Z,5.33
2019-06-26T16:38:43.906Z,4.67
2019-06-26T16:41:12.384Z,6.57
2019-06-26T16:43:40.985Z,5.00
2019-06-26T16:46:09.531Z,5.43
2019-06-26T16:48:38.128Z,3.57
2019-06-26T16:51:07.201Z,2.77
2019-06-26T16:53:35.800Z,4.20
2019-06-26T16:56:04.390Z,4.37
2019-06-26T16:58:33.554Z,5.23
2019-06-26T17:01:02.123Z,3.40
2019-06-26T17:03:30.695Z,3.97
2019-06-26T17:05:59.276Z,3.87
2019-06-26T17:08:27.765Z,3.00
2019-06-26T17:10:56.340Z,3.17
2019-06-26T17:13:24.896Z,3.57
2019-06-26T17:15:53.474Z,2.97
2019-06-26T17:18:22.061Z,2.80
2019-06-26T17:20:50.618Z,2.77
2019-06-26T17:23:19.219Z,2.90
2019-06-26T17:25:47.772Z,4.40
2019-06-26T17:28:16.321Z,4.43
2019-06-26T17:30:44.919Z,4.43
2019-06-26T17:33:13.622Z,3.33
2019-06-26T17:35:42.205Z,4.80
2019-06-26T17:38:10.803Z,3.43
2019-06-26T17:40:39.308Z,4.60
2019-06-26T17:43:12.199Z,3.77
2019-06-26T17:45:38.083Z,4.40
2019-06-26T17:48:06.813Z,3.57
2019-06-26T17:50:35.455Z,4.45
2019-06-26T17:53:04.085Z,2.33
2019-06-26T17:55:32.655Z,3.73
2019-06-26T17:58:01.230Z,2.87
2019-06-26T18:00:35.275Z,2.77
2019-06-26T18:03:04.219Z,4.10
2019-06-26T18:05:32.714Z,5.90
2019-06-26T18:08:01.283Z,3.47
2019-06-26T18:10:29.946Z,2.53
2019-06-26T18:12:58.535Z,4.70
2019-06-26T18:15:27.178Z,2.73
2019-06-26T18:17:55.716Z,5.40
2019-06-26T18:20:24.994Z,3.13
2019-06-26T18:23:06.549Z,4.87
2019-06-26T18:25:23.822Z,3.43
2019-06-26T18:27:52.457Z,3.83
2019-06-26T18:30:22.755Z,3.73
2019-06-26T18:32:51.663Z,5.87
2019-06-26T18:35:20.241Z,4.77
2019-06-26T18:37:49.214Z,6.20
2019-06-26T18:40:18.962Z,4.20
2019-06-26T18:42:47.629Z,5.07
2019-06-26T18:45:17.044Z,3.67
2019-06-26T18:47:45.536Z,4.97
2019-06-26T18:50:14.477Z,3.47
2019-06-26T18:52:42.987Z,4.33
2019-06-26T18:55:11.590Z,4.20
2019-06-26T18:57:40.140Z,5.07
2019-06-26T19:00:09.217Z,3.03
2019-06-26T19:02:37.937Z,2.93
2019-06-26T19:05:10.422Z,5.27
2019-06-26T19:07:39.009Z,2.70
2019-06-26T19:10:09.044Z,3.50
2019-06-26T19:12:37.653Z,5.67
2019-06-26T19:15:06.630Z,3.77
2019-06-26T19:17:35.343Z,7.67
2019-06-26T19:20:08.679Z,2.87
2019-06-26T19:22:37.370Z,7.90
2019-06-26T19:25:08.254Z,4.50
2019-06-26T19:27:38.230Z,5.37
2019-06-26T19:30:08.465Z,2.70
2019-06-26T19:32:37.650Z,3.73
2019-06-26T19:35:17.809Z,3.20
2019-06-26T19:37:37.358Z,3.97
2019-06-26T19:40:08.748Z,4.70
2019-06-26T19:42:36.834Z,3.93
2019-06-26T19:45:09.348Z,6.03
2019-06-26T19:47:37.949Z,5.17
2019-06-26T19:50:09.781Z,4.73
2019-06-26T19:52:38.460Z,3.90
2019-06-26T19:55:07.632Z,4.43
2019-06-26T19:57:36.252Z,4.57
2019-06-26T20:00:09.718Z,3.90
2019-06-26T20:02:39.974Z,3.93
2019-06-26T20:05:09.407Z,6.10
2019-06-26T20:07:38.049Z,8.63
2019-06-26T20:10:07.577Z,8.43
2019-06-26T20:12:36.905Z,5.27
2019-06-26T20:15:07.744Z,6.03
2019-06-26T20:17:36.463Z,5.47
2019-06-26T20:20:09.686Z,5.10
2019-06-26T20:22:38.250Z,3.67
2019-06-26T20:25:08.143Z,4.37
2019-06-26T20:27:36.881Z,5.57
2019-06-26T20:30:09.620Z,5.60
2019-06-26T20:32:36.904Z,5.73
2019-06-26T20:35:07.394Z,3.83
2019-06-26T20:37:36.005Z,6.23
2019-06-26T20:40:08.800Z,5.13
2019-06-26T20:42:37.375Z,3.77
2019-06-26T20:45:07.704Z,5.77
2019-06-26T20:47:36.663Z,4.13
2019-06-26T20:50:08.070Z,5.53
2019-06-26T20:52:36.688Z,5.30
2019-06-26T20:55:06.207Z,5.97
2019-06-26T20:57:34.762Z,7.07
2019-06-26T21:00:03.704Z,6.60
2019-06-26T21:02:32.343Z,8.00
2019-06-26T21:05:01.019Z,4.50
2019-06-26T21:07:29.590Z,4.53
2019-06-26T21:09:58.377Z,3.00
2019-06-26T21:12:27.017Z,7.17
2019-06-26T21:14:55.666Z,4.27
2019-06-26T21:17:25.743Z,3.97
2019-06-26T21:19:54.540Z,5.07
2019-06-26T21:22:23.199Z,7.17
2019-06-26T21:24:51.678Z,6.10
2019-06-26T21:27:20.220Z,6.17
2019-06-26T21:29:48.689Z,4.57
2019-06-26T21:32:17.279Z,7.43
2019-06-26T21:34:45.765Z,7.77
2019-06-26T21:37:14.331Z,7.67
2019-06-26T21:39:44.215Z,6.93
2019-06-26T21:42:12.691Z,6.07
2019-06-26T21:44:41.531Z,5.20
2019-06-26T21:47:10.010Z,5.00
2019-06-26T21:49:38.583Z,7.60
2019-06-26T21:52:07.077Z,9.20
2019-06-26T21:54:35.631Z,5.53
2019-06-26T21:57:04.113Z,4.70
2019-06-26T21:59:32.613Z,10.93
2019-06-26T22:02:01.240Z,5.70
2019-06-26T22:04:29.875Z,5.60
2019-06-26T22:06:58.464Z,5.23
2019-06-26T22:09:26.970Z,4.73
2019-06-26T22:11:55.621Z,5.47
2019-06-26T22:14:24.124Z,3.93
2019-06-26T22:16:52.670Z,3.83
2019-06-26T22:19:21.278Z,7.50
2019-06-26T22:21:49.791Z,5.20
2019-06-26T22:24:18.292Z,5.47
2019-06-26T22:26:48.326Z,5.60
2019-06-26T22:29:16.917Z,4.70
2019-06-26T22:31:47.068Z,5.00
2019-06-26T22:34:15.823Z,4.97
2019-06-26T22:36:51.321Z,5.80
2019-06-26T22:39:14.643Z,6.97
2019-06-26T22:41:43.193Z,7.83
2019-06-26T22:44:12.380Z,6.57
2019-06-26T22:46:40.937Z,4.33
2019-06-26T22:49:09.415Z,5.57
2019-06-26T22:51:38.132Z,6.43
2019-06-26T22:54:06.843Z,5.83
2019-06-26T22:56:35.471Z,5.30
2019-06-26T22:59:04.038Z,5.37
2019-06-26T23:01:32.734Z,6.13
2019-06-26T23:04:01.315Z,6.63
2019-06-26T23:06:29.903Z,9.80
2019-06-26T23:08:58.474Z,7.57
2019-06-26T23:11:26.956Z,5.13
2019-06-26T23:13:55.530Z,5.63
2019-06-26T23:16:24.094Z,8.13
2019-06-26T23:18:52.595Z,5.73
2019-06-26T23:21:21.191Z,5.03
2019-06-26T23:23:49.678Z,9.07
2019-06-26T23:26:23.779Z,9.27
2019-06-26T23:28:48.395Z,6.30
2019-06-26T23:31:16.980Z,8.60
2019-06-26T23:33:45.548Z,6.70
2019-06-26T23:36:14.136Z,7.03
2019-06-26T23:38:42.701Z,7.53
2019-06-26T23:41:11.277Z,8.07
2019-06-26T23:43:39.870Z,7.83
2019-06-26T23:46:08.441Z,7.23
2019-06-26T23:48:37.017Z,5.50
2019-06-26T23:51:05.517Z,4.07
2019-06-26T23:53:34.029Z,6.53
2019-06-26T23:56:05.432Z,10.07
2019-06-26T23:58:33.940Z,6.50
